OSLKOSDI

Guest
Details From OSLK - BASSEL AL ASSAD INTL
To OSDI - DAMASCUS INTL
Flight Number -
Tags decoded
Created
Modified
Stats Distance 218 nm / 404 km
Max Altitude 0 ft / 0 m
Waypoints 7
Social Downloads 2
Likes 0
Share VATSIM

Download

Looking for another format? Having issues loading an existing format? Contact us
Advertisement - Login to hide

Notes

Requested: OSLK BAN R785 ABBAS G202 DAM OSDI

Route

OSLK BAN R785 ABBAS G202 DAM OSDI

ID Type Via Altitude Latitude Longitude Leg Dist Tot Dist Heading (true) Name
O OSLK APT - 0 ft / 0 m 35.40128˚ 35.94844˚ - 0 nm - BASSEL AL ASSAD INTL
BAN NDB - 0 ft / 0 m 35.22829˚ 35.95792˚ 10 nm 10 nm 177° / 177° BANIAS NDB
KTN VOR R785 (AWY-HI) 0 ft / 0 m 34.21328˚ 37.26421˚ 88 nm 99 nm 133° / 134° KARIATAIN VOR-DME
BASEM FIX R785 (AWY-LO) 0 ft / 0 m 33.56028˚ 37.65194˚ 43 nm 142 nm 154° / 154° -
ABBAS FIX R785 (AWY-LO) 0 ft / 0 m 33.43333˚ 37.72626˚ 8 nm 151 nm 154° / 154° -
DAM VOR G202 (AWY-LO) 0 ft / 0 m 33.36488˚ 36.46862˚ 63 nm 214 nm 267° / 266° DAMASCUS VOR-DME
O OSDI APT - 0 ft / 0 m 33.41063˚ 36.51426˚ 3 nm 218 nm 40° / 40° DAMASCUS INTL

Altitude Profile

Advertisement - Login to hide

Weather


0- 5 10 15 20 25 30 35+ Temperature / ° C

Clouds and Precipitation
Forecast for 2017-12-12 18:00 UTC. Updated an hour ago

Ground ~20,000 ft ~40,000 ft Winds

OSLK

Details ICAO OSLK (LTK)
Name BASSEL AL ASSAD INTL
Region Syria
Timezone Asia/Damascus (UTC+2.0)
Stats Elevation 157 ft / 48 m (AMSL)
Location 35.401282° 35.948444°
Runways 1
Magnetic Variation 5.139° E

METAR

OSLK 121400Z 01005KT CAVOK 19/03 Q1019

Decode

TAF

Not found

Departure Runways

ID Width Length Bearing (true) Bearing (mag) Surface Threshold Offset Overrun Length
17 148 ft / 45 m 9,209 ft / 2,807 m 176.62° 171.48° Asphalt 0 ft / 0 m 197 ft / 60 m
35 148 ft / 45 m 9,209 ft / 2,807 m 356.62° 351.48° Asphalt 590 ft / 180 m 0 ft / 0 m

OSDI

Details ICAO OSDI (DAM)
Name DAMASCUS INTL
Region Syria
Timezone Asia/Damascus (UTC+2.0)
Stats Elevation 2,020 ft / 616 m (AMSL)
Location 33.410635° 36.514265°
Runways 2
Magnetic Variation 4.871° E

METAR

OSDI 121400Z 00000KT CAVOK 18/M10 Q1023

Decode

TAF

Not found

Destination Runways

ID Width Length Bearing (true) Bearing (mag) Surface Threshold Offset Overrun Length
05L 148 ft / 45 m 11,808 ft / 3,599 m 48.36° 43.49° Asphalt 0 ft / 0 m 197 ft / 60 m
05R 148 ft / 45 m 11,674 ft / 3,558 m 48.33° 43.46° Asphalt 0 ft / 0 m 197 ft / 60 m
23L 148 ft / 45 m 11,674 ft / 3,558 m 228.35° 223.48° Asphalt 0 ft / 0 m 197 ft / 60 m
23R 148 ft / 45 m 11,808 ft / 3,599 m 228.38° 223.51° Asphalt 0 ft / 0 m 197 ft / 60 m

Approach Navaids

Runway Type Ident Frequency Range Bearing (true) Bearing (mag) Slope Elevation
23R Localiser IDA 109.90 MHz 18 nm / 33 km 227.88° 223.01° - 2,033 ft / 620 m (AMSL)
23R Glidescope IDA 109.90 MHz 10 nm / 19 km 228.37° 223.50° 3.00° 2,033 ft / 620 m (AMSL)